Time;durP1;ratioP1;P1;durP2;ratioP2;P2;SDS_P1;SDS_P2;PMS_P1;PMS_P2;Temp;Humidity;BMP_temperature;BMP_pressure;BME280_temperature;BME280_humidity;BME280_pressure;Samples;Min_cycle;Max_cycle;Signal;HPM_P1;HPM_P2
2021/12/31 00:00:01;;;;;;;14.13;3.27;;;-8.30;99.90;;;;;;2211379;64;20110;-35
2021/12/31 00:02:28;;;;;;;12.97;2.77;;;-8.30;99.90;;;;;;2211202;64;20089;-33
2021/12/31 00:04:56;;;;;;;5.97;1.57;;;-8.20;99.90;;;;;;2212515;64;20093;-35
2021/12/31 00:07:22;;;;;;;12.20;3.73;;;-8.20;99.90;;;;;;2219530;64;20103;-41
2021/12/31 00:09:48;;;;;;;15.50;3.53;;;-8.00;99.90;;;;;;2223136;64;20088;-35
2021/12/31 00:12:15;;;;;;;10.07;3.93;;;-7.90;99.90;;;;;;2222806;64;20448;-34
2021/12/31 00:14:42;;;;;;;8.63;2.63;;;-7.90;99.90;;;;;;2223043;64;20104;-34
2021/12/31 00:17:09;;;;;;;14.70;3.13;;;-7.90;99.90;;;;;;2222898;64;20092;-33
2021/12/31 00:19:41;;;;;;;15.37;3.73;;;-7.90;99.90;;;;;;2222840;64;20111;-33
2021/12/31 00:22:39;;;;;;;14.30;4.03;;;-8.00;99.90;;;;;;2222904;64;20148;-36
2021/12/31 00:25:02;;;;;;;10.37;3.23;;;-8.10;99.90;;;;;;2222850;64;20108;-39
2021/12/31 00:27:28;;;;;;;7.23;1.80;;;-8.10;99.90;;;;;;2222848;64;20112;-36
2021/12/31 00:29:55;;;;;;;12.97;3.77;;;-8.00;99.90;;;;;;2222978;64;20096;-35
2021/12/31 00:32:22;;;;;;;13.43;3.67;;;-8.00;99.90;;;;;;2222935;64;20099;-34
2021/12/31 00:34:49;;;;;;;12.13;4.23;;;-8.00;99.90;;;;;;2222969;64;20147;-33
2021/12/31 00:37:29;;;;;;;5.90;2.23;;;-8.10;99.90;;;;;;2222869;64;20106;-33
2021/12/31 00:39:56;;;;;;;10.77;2.70;;;-8.10;99.90;;;;;;2220765;64;20080;-33
2021/12/31 00:42:24;;;;;;;9.43;3.47;;;-8.00;99.90;;;;;;2220674;64;20111;-44
2021/12/31 00:44:50;;;;;;;14.60;3.53;;;-7.90;99.90;;;;;;2220839;64;20107;-38
2021/12/31 00:47:17;;;;;;;11.93;2.70;;;-7.90;99.90;;;;;;2220604;64;20579;-38
2021/12/31 00:49:44;;;;;;;28.73;4.43;;;-7.80;99.90;;;;;;2220780;64;20152;-35
2021/12/31 00:52:11;;;;;;;17.50;3.83;;;-7.80;99.90;;;;;;2220518;64;20472;-33
2021/12/31 00:54:38;;;;;;;15.03;3.27;;;-7.90;99.90;;;;;;2220658;64;20096;-33
2021/12/31 00:57:06;;;;;;;15.90;3.30;;;-7.90;99.90;;;;;;2219947;64;20487;-33
2021/12/31 00:59:33;;;;;;;16.07;3.53;;;-8.00;99.90;;;;;;2220454;64;20491;-37
2021/12/31 01:02:00;;;;;;;12.23;3.07;;;-8.10;99.90;;;;;;2220522;64;20088;-33
2021/12/31 01:04:27;;;;;;;19.73;3.50;;;-8.10;99.90;;;;;;2220610;64;20468;-34
2021/12/31 01:06:54;;;;;;;17.40;4.13;;;-8.20;99.90;;;;;;2219999;64;20104;-34
2021/12/31 01:09:21;;;;;;;11.93;3.20;;;-8.30;99.90;;;;;;2220208;64;20092;-34
2021/12/31 01:11:48;;;;;;;14.13;3.53;;;-8.30;99.90;;;;;;2220525;64;20081;-34
2021/12/31 01:14:26;;;;;;;12.97;2.97;;;-8.20;99.90;;;;;;2220773;64;20333;-34
2021/12/31 01:16:58;;;;;;;15.07;3.73;;;-8.20;99.90;;;;;;2220645;64;20100;-34
2021/12/31 01:21:53;;;;;;;17.93;3.50;;;-8.20;99.90;;;;;;2220476;64;20146;-34
2021/12/31 01:24:25;;;;;;;17.67;4.00;;;-8.30;99.90;;;;;;2220537;64;20103;-33
2021/12/31 01:26:52;;;;;;;16.40;4.30;;;-8.20;99.90;;;;;;2220686;64;20553;-34
2021/12/31 01:29:18;;;;;;;8.27;2.83;;;-8.20;99.90;;;;;;2220672;64;20111;-33
2021/12/31 01:31:45;;;;;;;8.97;2.57;;;-8.20;99.90;;;;;;2220450;64;20107;-35
2021/12/31 01:34:12;;;;;;;11.07;3.27;;;-8.20;99.90;;;;;;2220626;64;20111;-34
2021/12/31 01:36:39;;;;;;;14.13;3.33;;;-8.10;99.90;;;;;;2220501;64;20111;-36
2021/12/31 01:39:05;;;;;;;17.57;3.13;;;-8.00;99.90;;;;;;2219998;64;20096;-34
2021/12/31 01:41:39;;;;;;;10.10;3.17;;;-8.00;99.90;;;;;;2220509;64;20555;-32
2021/12/31 01:44:12;;;;;;;10.03;2.73;;;-7.80;99.90;;;;;;2220501;64;20626;-35
2021/12/31 01:46:53;;;;;;;12.23;3.53;;;-7.80;99.90;;;;;;2220276;64;20119;-35
2021/12/31 01:49:22;;;;;;;7.77;1.97;;;-7.80;99.90;;;;;;2220421;64;20104;-38
2021/12/31 01:51:49;;;;;;;10.40;3.10;;;-7.80;99.90;;;;;;2219727;64;20111;-34
2021/12/31 01:54:16;;;;;;;15.63;3.00;;;-7.90;99.90;;;;;;2220460;64;20115;-35
2021/12/31 01:56:43;;;;;;;11.03;4.00;;;-7.80;99.90;;;;;;2220443;64;20101;-38
2021/12/31 01:59:10;;;;;;;12.23;3.03;;;-7.80;99.90;;;;;;2220601;64;20080;-34
2021/12/31 02:01:37;;;;;;;13.00;3.03;;;-7.80;99.90;;;;;;2219747;64;20100;-34
2021/12/31 02:04:05;;;;;;;14.67;5.00;;;-7.60;99.90;;;;;;2219750;64;20104;-34
2021/12/31 02:06:33;;;;;;;11.17;4.10;;;-7.60;99.90;;;;;;2220440;64;20165;-35
2021/12/31 02:09:05;;;;;;;17.27;4.83;;;-7.50;99.90;;;;;;2220509;64;20544;-38
2021/12/31 02:11:32;;;;;;;14.47;4.03;;;-7.50;99.90;;;;;;2220467;64;20179;-34
2021/12/31 02:14:00;;;;;;;5.57;1.50;;;-7.60;99.90;;;;;;2220423;64;20085;-45
2021/12/31 02:16:27;;;;;;;13.03;5.70;;;-7.60;99.90;;;;;;2219680;64;20092;-33
2021/12/31 02:18:54;;;;;;;17.17;5.67;;;-7.50;99.90;;;;;;2220542;64;20092;-34
2021/12/31 02:21:21;;;;;;;16.23;5.40;;;-7.60;99.90;;;;;;2220344;64;20112;-34
2021/12/31 02:23:55;;;;;;;18.63;4.67;;;-7.50;99.90;;;;;;2219875;64;20088;-34
2021/12/31 02:26:22;;;;;;;14.73;3.87;;;-7.40;99.90;;;;;;2220235;64;20131;-33
2021/12/31 02:28:48;;;;;;;12.37;4.23;;;-7.50;99.90;;;;;;2220294;64;20100;-36
2021/12/31 02:31:15;;;;;;;22.33;4.70;;;-7.70;99.90;;;;;;2220358;64;21242;-35
2021/12/31 02:33:43;;;;;;;18.50;5.70;;;-7.60;99.90;;;;;;2220405;64;20170;-33
2021/12/31 02:36:10;;;;;;;9.77;3.20;;;-7.70;99.90;;;;;;2220176;64;20164;-33
2021/12/31 02:38:37;;;;;;;9.67;2.33;;;-7.70;99.90;;;;;;2220171;64;20142;-35
2021/12/31 02:41:04;;;;;;;19.63;3.83;;;-7.60;99.90;;;;;;2220210;64;20148;-35
2021/12/31 02:43:30;;;;;;;15.47;4.40;;;-7.50;99.90;;;;;;2220457;64;20164;-40
2021/12/31 02:45:57;;;;;;;10.97;3.03;;;-7.60;99.90;;;;;;2220384;64;20103;-35
2021/12/31 02:48:35;;;;;;;18.53;3.93;;;-7.60;99.90;;;;;;2219775;64;20587;-40
2021/12/31 02:51:16;;;;;;;11.47;3.33;;;-7.60;99.90;;;;;;2219696;64;20095;-40
2021/12/31 02:54:31;;;;;;;11.80;3.60;;;-7.60;99.90;;;;;;2219529;64;20126;-34
2021/12/31 02:57:07;;;;;;;15.43;4.13;;;-7.60;99.90;;;;;;2219757;64;20126;-39
2021/12/31 02:59:34;;;;;;;8.87;3.00;;;-7.60;99.90;;;;;;2220698;64;20108;-38
2021/12/31 03:02:02;;;;;;;16.17;4.83;;;-7.60;99.90;;;;;;2221095;64;20660;-46
2021/12/31 03:04:29;;;;;;;18.83;6.27;;;-7.50;99.90;;;;;;2220846;64;20566;-34
2021/12/31 03:06:56;;;;;;;15.80;3.10;;;-7.40;99.90;;;;;;2220957;64;20168;-34
2021/12/31 03:09:23;;;;;;;12.77;4.53;;;-7.40;99.90;;;;;;2220707;64;20096;-34
2021/12/31 03:11:53;;;;;;;10.00;3.07;;;-7.50;99.90;;;;;;2217209;64;20092;-34
2021/12/31 03:14:20;;;;;;;11.10;3.57;;;-7.50;99.90;;;;;;2220732;64;20108;-33
2021/12/31 03:16:47;;;;;;;9.87;3.13;;;-7.40;99.90;;;;;;2220800;64;20096;-33
2021/12/31 03:19:15;;;;;;;10.23;2.63;;;-7.50;99.90;;;;;;2220831;64;20085;-34
2021/12/31 03:21:42;;;;;;;10.57;3.80;;;-7.60;99.90;;;;;;2220963;64;20541;-35
2021/12/31 03:24:09;;;;;;;15.87;3.50;;;-7.70;99.90;;;;;;2220879;64;20111;-33
2021/12/31 03:26:36;;;;;;;14.47;4.00;;;-7.70;99.90;;;;;;2220391;64;20541;-33
2021/12/31 03:29:03;;;;;;;10.50;3.73;;;-7.70;99.90;;;;;;2220756;64;20104;-41
2021/12/31 03:31:30;;;;;;;11.70;3.30;;;-7.80;99.90;;;;;;2221043;64;20089;-36
2021/12/31 03:33:57;;;;;;;11.27;4.30;;;-7.80;99.90;;;;;;2220902;64;20104;-34
2021/12/31 03:36:24;;;;;;;18.50;4.83;;;-7.80;99.90;;;;;;2220861;64;20159;-35
2021/12/31 03:38:51;;;;;;;10.27;3.03;;;-7.80;99.90;;;;;;2220932;64;20745;-33
2021/12/31 03:41:20;;;;;;;10.23;2.60;;;-7.70;99.90;;;;;;2220591;64;20095;-40
2021/12/31 03:43:47;;;;;;;15.17;4.30;;;-7.60;99.90;;;;;;2220737;64;20131;-33
2021/12/31 03:46:14;;;;;;;15.37;4.37;;;-7.60;99.90;;;;;;2220780;64;20095;-34
2021/12/31 03:48:41;;;;;;;9.03;3.87;;;-7.60;99.90;;;;;;2220608;64;20123;-35
2021/12/31 03:51:08;;;;;;;12.83;3.90;;;-7.70;99.90;;;;;;2220824;64;20096;-32
2021/12/31 03:53:35;;;;;;;7.37;2.30;;;-7.70;99.90;;;;;;2220730;64;20513;-37
2021/12/31 03:56:03;;;;;;;11.80;4.10;;;-7.70;99.90;;;;;;2220722;64;20147;-33
2021/12/31 03:58:29;;;;;;;6.60;2.37;;;-7.70;99.90;;;;;;2220760;64;20115;-32
2021/12/31 04:00:57;;;;;;;15.17;2.30;;;-7.60;99.90;;;;;;2220835;64;20085;-33
2021/12/31 04:03:24;;;;;;;6.47;1.57;;;-7.50;99.90;;;;;;2220611;64;20135;-34
2021/12/31 04:05:53;;;;;;;5.03;2.07;;;-7.50;99.90;;;;;;2220115;64;20096;-33
2021/12/31 04:08:20;;;;;;;10.77;3.47;;;-7.40;99.90;;;;;;2220681;64;20096;-33
2021/12/31 04:10:47;;;;;;;3.73;1.27;;;-7.40;99.90;;;;;;2220057;64;20142;-33
2021/12/31 04:13:15;;;;;;;10.13;3.80;;;-7.40;99.90;;;;;;2220533;64;20449;-34
2021/12/31 04:15:42;;;;;;;13.87;3.20;;;-7.40;99.90;;;;;;2220816;64;20541;-33
2021/12/31 04:18:09;;;;;;;12.57;3.13;;;-7.40;99.90;;;;;;2220666;64;20115;-33
2021/12/31 04:20:40;;;;;;;12.27;3.00;;;-7.40;99.90;;;;;;2220785;64;20077;-37
2021/12/31 04:23:14;;;;;;;9.27;3.13;;;-7.50;99.90;;;;;;2220139;64;20561;-33
2021/12/31 04:25:44;;;;;;;8.70;2.27;;;-7.50;99.90;;;;;;2220794;64;20144;-33
2021/12/31 04:28:11;;;;;;;11.73;3.27;;;-7.40;99.90;;;;;;2220646;64;20103;-40
2021/12/31 04:30:39;;;;;;;8.10;2.03;;;-7.40;99.90;;;;;;2220750;64;20450;-33
2021/12/31 04:33:06;;;;;;;5.83;2.60;;;-7.40;99.90;;;;;;2220664;64;20108;-33
2021/12/31 04:35:34;;;;;;;9.90;2.77;;;-7.40;99.90;;;;;;2220777;64;20093;-33
2021/12/31 04:38:01;;;;;;;11.27;1.80;;;-7.30;99.90;;;;;;2220566;64;20177;-35
2021/12/31 04:40:30;;;;;;;11.73;3.67;;;-7.30;99.90;;;;;;2220682;64;20097;-34
2021/12/31 04:42:59;;;;;;;5.60;1.90;;;-7.20;99.90;;;;;;2220626;64;20148;-36
2021/12/31 04:45:27;;;;;;;7.27;2.00;;;-7.30;99.90;;;;;;2216953;64;20096;-34
2021/12/31 04:47:54;;;;;;;7.50;3.23;;;-7.30;99.90;;;;;;2219888;64;20164;-33
2021/12/31 04:50:22;;;;;;;9.20;2.80;;;-7.40;99.90;;;;;;2220724;64;20465;-33
2021/12/31 04:52:49;;;;;;;8.93;2.87;;;-7.30;99.90;;;;;;2220468;64;20097;-36
2021/12/31 04:55:16;;;;;;;5.90;1.30;;;-7.30;99.90;;;;;;2219806;64;20116;-40
2021/12/31 04:57:47;;;;;;;9.57;2.03;;;-7.20;99.90;;;;;;2220435;64;20096;-34
2021/12/31 05:00:15;;;;;;;7.83;2.40;;;-7.10;99.90;;;;;;2220618;64;20425;-33
2021/12/31 05:02:42;;;;;;;11.17;3.87;;;-7.10;99.90;;;;;;2219799;64;20104;-34
2021/12/31 05:05:09;;;;;;;8.63;2.67;;;-7.10;99.90;;;;;;2220654;64;20081;-34
2021/12/31 05:07:37;;;;;;;9.23;3.10;;;-7.10;99.90;;;;;;2220521;64;20527;-34
2021/12/31 05:10:05;;;;;;;13.10;3.53;;;-7.20;99.90;;;;;;2220760;64;20102;-34
2021/12/31 05:12:34;;;;;;;9.20;2.37;;;-7.20;99.90;;;;;;2220438;64;20097;-34
2021/12/31 05:15:02;;;;;;;6.83;2.47;;;-7.20;99.90;;;;;;2220617;64;20104;-33
2021/12/31 05:17:30;;;;;;;14.13;3.93;;;-7.10;99.90;;;;;;2219890;64;20497;-34
2021/12/31 05:19:56;;;;;;;12.87;3.67;;;-7.30;99.90;;;;;;2220549;64;20522;-35
2021/12/31 05:22:23;;;;;;;8.70;2.73;;;-7.20;99.90;;;;;;2220338;64;20088;-34
2021/12/31 05:24:50;;;;;;;10.67;3.70;;;-7.20;99.90;;;;;;2220595;64;20089;-37
2021/12/31 05:27:17;;;;;;;11.97;2.80;;;-7.10;99.90;;;;;;2220495;64;20085;-35
2021/12/31 05:29:45;;;;;;;9.33;3.87;;;-7.10;99.90;;;;;;2220014;64;20088;-35
2021/12/31 05:32:13;;;;;;;9.47;3.50;;;-7.10;99.90;;;;;;2220280;64;20101;-34
2021/12/31 05:34:40;;;;;;;9.03;2.97;;;-7.00;99.90;;;;;;2220613;64;20456;-48
2021/12/31 05:37:10;;;;;;;14.87;4.50;;;-7.00;99.90;;;;;;2220452;64;20181;-33
2021/12/31 05:39:38;;;;;;;12.10;3.63;;;-7.00;99.90;;;;;;2220599;64;20151;-35
2021/12/31 05:42:08;;;;;;;6.47;1.80;;;-7.00;99.90;;;;;;2220465;64;20088;-38
2021/12/31 05:44:38;;;;;;;8.23;2.87;;;-6.80;99.90;;;;;;2220635;64;20160;-34
2021/12/31 05:47:07;;;;;;;7.83;2.93;;;-6.80;99.90;;;;;;2220427;64;20085;-35
2021/12/31 05:49:36;;;;;;;7.13;2.83;;;-6.70;99.90;;;;;;2220601;64;20092;-33
2021/12/31 05:52:04;;;;;;;10.33;4.20;;;-6.70;99.90;;;;;;2220310;64;20486;-34
2021/12/31 05:54:33;;;;;;;8.57;3.20;;;-6.70;99.90;;;;;;2219550;64;20571;-34
2021/12/31 05:57:00;;;;;;;6.10;1.73;;;-6.60;99.90;;;;;;2220104;64;20108;-35
2021/12/31 05:59:28;;;;;;;6.20;3.03;;;-6.50;99.90;;;;;;2219797;64;20464;-35
2021/12/31 06:01:55;;;;;;;9.50;3.87;;;-6.50;99.90;;;;;;2220231;64;20080;-34
2021/12/31 06:04:25;;;;;;;7.77;3.07;;;-6.40;99.90;;;;;;2220303;64;20113;-35
2021/12/31 06:06:53;;;;;;;11.27;3.20;;;-6.40;99.90;;;;;;2220212;64;20104;-33
2021/12/31 06:09:22;;;;;;;9.63;3.23;;;-6.40;99.90;;;;;;2220336;64;20560;-33
2021/12/31 06:11:51;;;;;;;10.03;3.63;;;-6.50;99.90;;;;;;2220148;64;20089;-34
2021/12/31 06:14:19;;;;;;;12.77;4.37;;;-6.40;99.90;;;;;;2219593;64;20104;-32
2021/12/31 06:16:48;;;;;;;11.57;2.30;;;-6.40;99.90;;;;;;2220200;64;20095;-35
2021/12/31 06:19:15;;;;;;;10.13;3.50;;;-6.40;99.90;;;;;;2219672;64;20544;-39
2021/12/31 06:21:42;;;;;;;10.47;2.97;;;-6.30;99.90;;;;;;2220430;64;20097;-35
2021/12/31 06:24:12;;;;;;;9.53;3.73;;;-6.30;99.90;;;;;;2220320;64;20096;-35
2021/12/31 06:26:40;;;;;;;9.40;4.50;;;-6.30;99.90;;;;;;2220371;64;20568;-35
2021/12/31 06:29:08;;;;;;;8.47;3.07;;;-6.30;99.90;;;;;;2214636;64;20291;-35
2021/12/31 06:31:34;;;;;;;9.87;3.80;;;-6.30;99.90;;;;;;2214613;64;20085;-33
2021/12/31 06:34:01;;;;;;;11.93;3.67;;;-6.30;99.90;;;;;;2215411;64;20591;-37
2021/12/31 06:36:27;;;;;;;7.20;2.70;;;-6.20;99.90;;;;;;2215413;64;20148;-37
2021/12/31 06:38:54;;;;;;;11.70;3.73;;;-6.10;99.90;;;;;;2215385;64;20089;-36
2021/12/31 06:41:20;;;;;;;10.80;3.13;;;-6.00;99.90;;;;;;2215284;64;20089;-36
2021/12/31 06:43:47;;;;;;;5.47;1.60;;;-5.80;99.90;;;;;;2215467;64;20096;-35
2021/12/31 06:46:14;;;;;;;10.37;3.47;;;-5.80;99.90;;;;;;2215267;64;20538;-43
2021/12/31 06:48:40;;;;;;;6.43;1.93;;;-5.70;99.90;;;;;;2215576;64;20545;-34
2021/12/31 06:51:07;;;;;;;13.50;5.50;;;-5.70;99.90;;;;;;2215106;64;20093;-35
2021/12/31 06:53:33;;;;;;;10.57;3.10;;;-5.60;99.90;;;;;;2215386;64;20092;-34
2021/12/31 06:56:00;;;;;;;12.53;2.83;;;-5.60;99.90;;;;;;2215310;64;20182;-34
2021/12/31 06:58:26;;;;;;;11.63;3.43;;;-5.50;99.90;;;;;;2212029;64;20089;-34
2021/12/31 07:00:52;;;;;;;6.47;2.70;;;-5.40;99.90;;;;;;2215383;64;20178;-36
2021/12/31 07:03:21;;;;;;;9.97;2.63;;;-5.30;99.90;;;;;;2215453;64;20093;-39
2021/12/31 07:05:49;;;;;;;13.93;3.53;;;-5.30;99.90;;;;;;2216034;64;20286;-36
2021/12/31 07:08:15;;;;;;;9.37;2.77;;;-5.30;99.90;;;;;;2220759;64;20437;-36
2021/12/31 07:10:49;;;;;;;7.63;2.23;;;-5.30;99.90;;;;;;2220147;64;20093;-35
2021/12/31 07:13:32;;;;;;;8.90;4.37;;;-5.30;99.90;;;;;;2215885;64;20115;-35
2021/12/31 07:15:58;;;;;;;8.17;2.43;;;-5.10;99.90;;;;;;2218715;64;20508;-39
2021/12/31 07:18:26;;;;;;;11.00;3.10;;;-4.90;99.90;;;;;;2219031;64;20590;-36
2021/12/31 07:20:53;;;;;;;10.77;3.67;;;-5.00;99.90;;;;;;2219111;64;20102;-40
2021/12/31 07:23:21;;;;;;;6.20;3.10;;;-5.00;99.90;;;;;;2211168;64;20113;-37
2021/12/31 07:25:47;;;;;;;4.07;1.67;;;-4.90;99.90;;;;;;2211229;64;20089;-40
2021/12/31 07:28:17;;;;;;;9.57;2.97;;;-4.80;99.90;;;;;;2211426;64;20183;-38
2021/12/31 07:30:45;;;;;;;10.53;3.10;;;-4.90;99.90;;;;;;2211437;64;20530;-37
2021/12/31 07:33:17;;;;;;;4.37;1.77;;;-4.80;99.90;;;;;;2208258;64;20211;-34
2021/12/31 07:35:48;;;;;;;9.43;3.80;;;-4.60;99.90;;;;;;2204915;64;20099;-36
2021/12/31 07:38:34;;;;;;;7.13;2.57;;;-4.50;99.90;;;;;;2211307;64;20085;-34
2021/12/31 07:41:02;;;;;;;6.80;2.50;;;-4.60;99.80;;;;;;2211309;64;20090;-36
2021/12/31 07:43:30;;;;;;;12.10;2.70;;;-4.40;99.90;;;;;;2211158;64;20089;-36
2021/12/31 07:45:59;;;;;;;12.70;3.77;;;-4.50;99.90;;;;;;2208197;64;20108;-36
2021/12/31 07:48:28;;;;;;;6.23;2.37;;;-4.50;99.90;;;;;;2211499;64;20165;-35
2021/12/31 07:50:58;;;;;;;8.23;2.90;;;-4.50;99.60;;;;;;2207916;64;20189;-35
2021/12/31 07:53:27;;;;;;;6.77;2.97;;;-4.60;99.40;;;;;;2211803;64;20156;-34
2021/12/31 07:55:55;;;;;;;8.20;2.97;;;-4.40;99.90;;;;;;2216641;64;20108;-33
2021/12/31 07:58:24;;;;;;;10.13;3.53;;;-4.30;99.90;;;;;;2216684;64;20104;-34
2021/12/31 08:00:53;;;;;;;9.63;3.30;;;-4.50;99.70;;;;;;2216757;64;20108;-33
2021/12/31 08:03:21;;;;;;;10.50;3.57;;;-4.40;99.80;;;;;;2216878;64;20549;-35
2021/12/31 08:05:48;;;;;;;12.87;4.23;;;-4.30;99.90;;;;;;2216927;64;20515;-34
2021/12/31 08:08:17;;;;;;;8.07;2.97;;;-4.10;99.90;;;;;;2216173;64;20523;-36
2021/12/31 08:10:45;;;;;;;6.70;2.60;;;-4.10;99.90;;;;;;2216812;64;20603;-35
2021/12/31 08:13:14;;;;;;;7.53;3.43;;;-4.10;99.90;;;;;;2216028;64;20561;-35
2021/12/31 08:15:43;;;;;;;6.20;2.83;;;-4.30;99.40;;;;;;2216709;64;20089;-34
2021/12/31 08:18:11;;;;;;;12.40;3.60;;;-4.10;99.90;;;;;;2218725;64;20093;-35
2021/12/31 08:20:44;;;;;;;5.50;1.90;;;-4.30;99.40;;;;;;2218790;64;20110;-38
2021/12/31 08:23:13;;;;;;;8.00;3.43;;;-4.00;99.90;;;;;;2218811;64;20081;-37
2021/12/31 08:25:43;;;;;;;8.73;3.03;;;-4.00;99.90;;;;;;2218918;64;20081;-37
2021/12/31 08:28:11;;;;;;;12.30;3.47;;;-3.80;99.90;;;;;;2219000;64;20097;-34
2021/12/31 08:30:40;;;;;;;7.27;4.53;;;-3.90;99.50;;;;;;2218710;64;20100;-35
2021/12/31 08:33:10;;;;;;;5.57;2.53;;;-4.00;99.90;;;;;;2219074;64;20174;-36
2021/12/31 08:35:38;;;;;;;8.00;3.30;;;-3.80;99.90;;;;;;2218868;64;20484;-38
2021/12/31 08:38:08;;;;;;;6.10;2.23;;;-3.70;99.90;;;;;;2219067;64;20201;-40
2021/12/31 08:40:37;;;;;;;9.80;2.57;;;-3.70;99.90;;;;;;2218862;64;20093;-36
2021/12/31 08:43:07;;;;;;;7.17;3.07;;;-3.50;99.80;;;;;;2215561;64;20107;-36
2021/12/31 08:45:35;;;;;;;9.27;2.70;;;-3.80;98.70;;;;;;2218722;64;20199;-34
2021/12/31 08:48:05;;;;;;;6.93;4.17;;;-3.70;99.90;;;;;;2218947;64;20095;-37
2021/12/31 08:50:33;;;;;;;8.83;2.80;;;-3.60;99.90;;;;;;2218803;64;20088;-35
2021/12/31 08:53:01;;;;;;;6.47;2.23;;;-3.70;98.90;;;;;;2218830;64;20106;-37
2021/12/31 08:55:29;;;;;;;8.50;3.60;;;-3.70;99.90;;;;;;2218890;64;20172;-39
2021/12/31 08:57:57;;;;;;;12.60;3.67;;;-3.80;99.30;;;;;;2219700;64;20101;-37
2021/12/31 09:00:26;;;;;;;12.37;4.07;;;-3.50;99.90;;;;;;2220324;64;20088;-42
2021/12/31 09:03:02;;;;;;;8.90;2.57;;;-3.50;99.80;;;;;;2219906;64;20090;-37
2021/12/31 09:05:34;;;;;;;6.10;3.27;;;-3.40;99.90;;;;;;2220307;64;20511;-40
2021/12/31 09:08:03;;;;;;;3.50;1.47;;;-3.50;99.90;;;;;;2219699;64;20094;-40
2021/12/31 09:10:33;;;;;;;8.50;3.37;;;-3.50;99.20;;;;;;2220464;64;20097;-34
2021/12/31 09:13:00;;;;;;;8.53;2.27;;;-3.70;99.00;;;;;;2220456;64;20089;-37
2021/12/31 09:15:27;;;;;;;3.90;2.33;;;-3.60;99.80;;;;;;2220224;64;20096;-36
2021/12/31 09:17:55;;;;;;;7.13;2.57;;;-3.60;99.40;;;;;;2220346;64;20085;-40
2021/12/31 09:20:22;;;;;;;9.87;3.90;;;-3.60;99.10;;;;;;2220264;64;20085;-44
2021/12/31 09:22:49;;;;;;;10.83;3.90;;;-3.40;99.90;;;;;;2220729;64;20076;-38
2021/12/31 09:25:16;;;;;;;4.77;2.63;;;-3.60;99.00;;;;;;2220427;64;20096;-36
2021/12/31 09:27:42;;;;;;;6.17;2.67;;;-3.50;99.80;;;;;;2220354;64;20093;-37
2021/12/31 09:30:09;;;;;;;9.93;4.10;;;-3.50;99.00;;;;;;2219892;64;20097;-33
2021/12/31 09:32:36;;;;;;;7.60;2.73;;;-3.70;98.60;;;;;;2219606;64;20097;-37
2021/12/31 09:35:03;;;;;;;5.43;2.20;;;-3.70;99.50;;;;;;2220325;64;20081;-36
2021/12/31 09:37:29;;;;;;;6.37;2.43;;;-3.60;99.10;;;;;;2220340;64;20100;-39
2021/12/31 09:39:56;;;;;;;7.23;3.07;;;-3.70;99.30;;;;;;2220097;64;20160;-36
2021/12/31 09:42:23;;;;;;;6.03;2.30;;;-3.40;99.90;;;;;;2220454;64;20433;-34
2021/12/31 09:44:50;;;;;;;5.40;1.50;;;-3.20;99.90;;;;;;2220392;64;20104;-35
2021/12/31 09:47:17;;;;;;;9.87;3.30;;;-3.40;99.80;;;;;;2220308;64;20076;-37
2021/12/31 09:49:44;;;;;;;4.57;1.83;;;-3.60;98.80;;;;;;2220174;64;20100;-37
2021/12/31 09:52:11;;;;;;;7.07;2.27;;;-3.70;99.60;;;;;;2220187;64;20084;-33
2021/12/31 09:54:48;;;;;;;3.37;1.50;;;-3.70;99.90;;;;;;2219941;64;20077;-40
2021/12/31 09:57:15;;;;;;;9.17;3.40;;;-3.70;99.90;;;;;;2220439;64;20141;-35
2021/12/31 09:59:44;;;;;;;7.50;3.70;;;-4.00;99.10;;;;;;2220208;64;20092;-35
2021/12/31 10:02:15;;;;;;;6.03;3.43;;;-4.20;99.90;;;;;;2219737;64;20583;-33
2021/12/31 10:04:56;;;;;;;8.97;3.43;;;-4.30;99.90;;;;;;2219924;64;20162;-35
2021/12/31 10:07:24;;;;;;;6.43;2.70;;;-4.30;99.90;;;;;;2220642;64;20177;-35
2021/12/31 10:10:07;;;;;;;7.87;3.23;;;-4.20;99.90;;;;;;2221127;64;20097;-34
2021/12/31 10:13:07;;;;;;;7.07;3.10;;;-4.40;99.90;;;;;;2220863;64;20652;-35
2021/12/31 10:15:47;;;;;;;8.70;2.97;;;-4.50;99.90;;;;;;2203681;65;20082;-35
2021/12/31 10:18:15;;;;;;;4.50;1.80;;;-4.50;99.90;;;;;;2203836;65;20103;-34
2021/12/31 10:20:53;;;;;;;3.50;1.83;;;-4.30;99.90;;;;;;2203659;65;20087;-33
2021/12/31 10:23:21;;;;;;;8.37;2.37;;;-3.90;99.90;;;;;;2203848;65;20633;-34
2021/12/31 10:25:52;;;;;;;6.80;2.73;;;-3.80;99.90;;;;;;2203826;65;20117;-33
2021/12/31 10:28:20;;;;;;;8.37;2.93;;;-3.90;99.90;;;;;;2204039;65;20094;-35
2021/12/31 10:30:49;;;;;;;8.83;3.97;;;-4.10;99.90;;;;;;2203949;65;20577;-40
2021/12/31 10:33:18;;;;;;;7.90;2.63;;;-3.90;99.90;;;;;;2203777;64;20121;-34
2021/12/31 10:35:48;;;;;;;6.57;3.10;;;-3.70;99.90;;;;;;2200563;65;20105;-36
2021/12/31 10:38:16;;;;;;;8.03;2.93;;;-3.90;99.90;;;;;;2203762;65;20169;-35
2021/12/31 10:40:45;;;;;;;4.73;0.93;;;-3.90;99.90;;;;;;2200776;65;20129;-35
2021/12/31 10:43:22;;;;;;;6.97;2.27;;;-3.90;99.90;;;;;;2204012;65;20082;-32
2021/12/31 10:46:09;;;;;;;4.17;2.20;;;-3.80;99.90;;;;;;2203773;65;20104;-34
2021/12/31 10:48:50;;;;;;;5.07;2.00;;;-3.90;99.90;;;;;;2204089;65;20224;-33
2021/12/31 10:51:20;;;;;;;4.17;1.43;;;-3.80;99.90;;;;;;2207375;64;20108;-35
2021/12/31 10:53:53;;;;;;;1.63;1.10;;;-3.90;99.90;;;;;;2221080;64;20105;-34
2021/12/31 10:56:21;;;;;;;4.33;1.70;;;-3.90;99.90;;;;;;2220105;64;20107;-33
2021/12/31 10:58:57;;;;;;;8.10;2.40;;;-3.80;99.90;;;;;;2220745;64;20096;-35
2021/12/31 11:01:26;;;;;;;6.20;1.83;;;-3.90;99.90;;;;;;2220968;64;20159;-33
2021/12/31 11:03:55;;;;;;;7.40;3.67;;;-4.00;99.80;;;;;;2220998;64;20092;-34
2021/12/31 11:06:24;;;;;;;6.63;3.20;;;-4.20;99.80;;;;;;2219970;64;20089;-44
2021/12/31 11:08:57;;;;;;;4.80;2.40;;;-3.90;99.90;;;;;;2220277;64;20165;-40
2021/12/31 11:11:26;;;;;;;6.33;1.83;;;-4.00;99.90;;;;;;2220838;64;20560;-40
2021/12/31 11:13:56;;;;;;;5.10;2.60;;;-4.10;99.90;;;;;;2220856;64;20085;-32
2021/12/31 11:16:24;;;;;;;4.87;1.60;;;-4.20;99.90;;;;;;2220611;64;20548;-37
2021/12/31 11:18:53;;;;;;;4.67;1.93;;;-4.20;99.90;;;;;;2220296;64;20115;-32
2021/12/31 11:21:22;;;;;;;6.63;3.00;;;-4.20;99.90;;;;;;2220561;64;20092;-34
2021/12/31 11:23:50;;;;;;;3.27;1.27;;;-4.20;99.90;;;;;;2214931;64;20135;-35
2021/12/31 11:26:28;;;;;;;1.87;1.17;;;-4.20;99.90;;;;;;2215031;64;20267;-37
2021/12/31 11:28:58;;;;;;;2.93;1.47;;;-4.30;99.90;;;;;;2212198;64;20145;-36
2021/12/31 11:31:27;;;;;;;4.93;2.40;;;-4.30;99.90;;;;;;2208782;64;20101;-41
2021/12/31 11:34:01;;;;;;;5.77;2.77;;;-4.50;99.90;;;;;;2215270;64;20459;-39
2021/12/31 11:36:56;;;;;;;4.53;1.92;;;-4.70;99.90;;;;;;2214976;64;20208;-39
2021/12/31 11:39:28;;;;;;;3.60;1.45;;;-4.90;99.90;;;;;;2215066;64;20112;-36
2021/12/31 11:41:58;;;;;;;5.20;1.90;;;-4.90;99.90;;;;;;2215050;64;20100;-39
2021/12/31 11:44:27;;;;;;;4.00;1.47;;;-5.00;99.90;;;;;;2215054;64;20540;-36
2021/12/31 11:47:17;;;;;;;5.77;2.23;;;-4.90;99.90;;;;;;2211971;64;20073;-39
2021/12/31 11:49:46;;;;;;;3.57;1.67;;;-4.80;99.90;;;;;;2214855;64;20097;-38
2021/12/31 11:52:23;;;;;;;5.10;2.47;;;-4.90;99.90;;;;;;2215041;64;21190;-38
2021/12/31 11:55:20;;;;;;;6.37;2.60;;;-5.00;99.90;;;;;;2214864;64;20104;-37
2021/12/31 11:57:49;;;;;;;5.40;2.27;;;-5.20;99.90;;;;;;2214975;64;20103;-35
2021/12/31 12:00:27;;;;;;;5.87;2.17;;;-5.10;99.90;;;;;;2215162;64;20533;-33
2021/12/31 12:02:56;;;;;;;8.23;2.67;;;-5.00;99.90;;;;;;2215127;64;20089;-35
2021/12/31 12:05:41;;;;;;;6.33;2.07;;;-5.00;99.90;;;;;;2215204;64;20666;-36
2021/12/31 12:08:27;;;;;;;4.87;1.93;;;-5.00;99.90;;;;;;2214125;64;20093;-37
2021/12/31 12:10:55;;;;;;;7.00;1.90;;;-5.00;99.90;;;;;;2216878;64;20104;-35
2021/12/31 12:13:29;;;;;;;5.70;1.83;;;-5.20;99.90;;;;;;2216816;64;20100;-33
2021/12/31 12:15:58;;;;;;;;;;;-5.30;99.90;;;;;;2216744;64;20097;-35
2021/12/31 12:18:52;;;;;;;5.93;2.00;;;-5.30;99.90;;;;;;2216743;64;19976;-41
2021/12/31 12:21:46;;;;;;;8.20;2.80;;;-5.30;99.90;;;;;;2216721;64;20100;-35
2021/12/31 12:24:16;;;;;;;7.13;1.93;;;-5.40;99.90;;;;;;2215598;64;20093;-34
2021/12/31 12:26:45;;;;;;;5.50;2.23;;;-5.30;99.90;;;;;;2215978;64;20550;-34
2021/12/31 12:29:25;;;;;;;8.53;1.60;;;-5.40;99.90;;;;;;2216146;64;20680;-34
2021/12/31 12:32:32;;;;;;;6.63;2.87;;;-5.20;99.90;;;;;;2216718;64;20450;-35
2021/12/31 12:35:16;;;;;;;6.87;2.27;;;-5.30;99.90;;;;;;2216740;64;20096;-34
2021/12/31 12:38:05;;;;;;;5.83;1.60;;;-5.20;99.90;;;;;;2216212;64;20527;-41
2021/12/31 12:40:38;;;;;;;8.53;2.00;;;-5.10;99.90;;;;;;2216618;64;20092;-34
2021/12/31 12:43:12;;;;;;;13.53;4.30;;;-5.20;99.90;;;;;;2215874;64;20446;-34
2021/12/31 12:45:45;;;;;;;9.07;3.30;;;-5.20;99.90;;;;;;2216005;64;20085;-33
2021/12/31 12:48:15;;;;;;;7.53;2.60;;;-5.20;99.90;;;;;;2216625;64;20123;-35
2021/12/31 12:50:52;;;;;;;8.67;3.63;;;-5.20;99.90;;;;;;2216705;64;20489;-33
2021/12/31 12:53:26;;;;;;;11.73;4.07;;;-5.20;99.90;;;;;;2216150;64;20078;-34
2021/12/31 12:56:12;;;;;;;11.38;4.07;;;-5.20;99.90;;;;;;2219409;64;20213;-34
2021/12/31 12:58:55;;;;;;;7.47;3.07;;;-5.50;99.90;;;;;;2220461;64;20100;-33